createdAt,value
2022-10-25T00:01:03.985Z,101839.26
2022-10-25T00:03:31.899Z,101833.83
2022-10-25T00:05:59.787Z,101819.67
2022-10-25T00:08:27.689Z,101813.46
2022-10-25T00:10:55.508Z,101812.77
2022-10-25T08:19:51.403Z,101973.94
2022-10-25T08:25:51.700Z,101967.36
2022-10-25T08:35:36.532Z,101959.84
2022-10-25T11:43:00.847Z,101866.85
2022-10-25T11:45:49.755Z,101868.78
2022-10-25T11:48:17.550Z,101871.98
2022-10-25T11:51:00.080Z,101869.21
2022-10-25T11:54:06.690Z,101862.93
2022-10-25T11:57:03.809Z,101860.19
2022-10-25T11:59:50.458Z,101852.34
2022-10-25T12:02:40.022Z,101857.05
2022-10-25T12:05:27.455Z,101853.35
2022-10-25T12:08:24.243Z,101856.52
2022-10-25T12:10:57.845Z,101850.67
2022-10-25T12:13:43.996Z,101851.00
2022-10-25T12:16:13.276Z,101850.37
2022-10-25T12:19:10.311Z,101849.98
2022-10-25T12:22:09.027Z,101840.17
2022-10-25T12:24:46.644Z,101836.64
2022-10-25T12:27:14.628Z,101834.75
2022-10-25T12:29:44.262Z,101832.42
2022-10-25T12:32:16.043Z,101842.59
2022-10-25T12:34:52.601Z,101840.96
2022-10-25T12:37:45.108Z,101836.68
2022-10-25T12:40:20.020Z,101829.58
2022-10-25T12:42:52.335Z,101829.32
2022-10-25T12:45:59.947Z,101828.47
2022-10-25T12:48:41.631Z,101831.74
2022-10-25T12:51:24.535Z,101827.59
2022-10-25T12:54:12.472Z,101827.59
2022-10-25T12:57:00.466Z,101818.04
2022-10-25T12:59:40.282Z,101819.51
2022-10-25T13:02:38.869Z,101813.37
2022-10-25T13:05:29.272Z,101812.84
2022-10-25T13:07:58.446Z,101808.72
2022-10-25T13:13:19.455Z,101814.18
2022-10-25T13:15:52.043Z,101813.30
2022-10-25T13:18:26.970Z,101809.93
2022-10-25T13:20:54.776Z,101802.80
2022-10-25T13:23:44.405Z,101809.34
2022-10-25T13:26:22.821Z,101803.85
2022-10-25T13:28:52.191Z,101798.78
2022-10-25T13:31:36.365Z,101795.51
2022-10-25T13:34:22.685Z,101794.89
2022-10-25T13:37:00.901Z,101790.73
2022-10-25T13:39:37.331Z,101799.44
2022-10-25T13:42:19.568Z,101785.21
2022-10-25T13:45:03.272Z,101793.81
2022-10-25T13:47:50.665Z,101789.73
2022-10-25T13:50:41.204Z,101785.02
2022-10-25T13:53:22.525Z,101786.16
2022-10-25T13:56:17.298Z,101782.73
2022-10-25T13:58:55.032Z,101785.60
2022-10-25T14:01:22.737Z,101780.96
2022-10-25T14:04:03.031Z,101782.20
2022-10-25T14:06:42.240Z,101780.51
2022-10-25T14:09:29.591Z,101784.43
2022-10-25T14:12:11.884Z,101775.57
2022-10-25T14:15:11.067Z,101776.25
2022-10-25T14:17:43.211Z,101769.59
2022-10-25T14:20:27.907Z,101765.20
2022-10-25T14:23:01.787Z,101772.85
2022-10-25T14:25:42.712Z,101767.36
2022-10-25T14:28:27.483Z,101758.59
2022-10-25T14:31:02.671Z,101750.29
2022-10-25T14:33:42.014Z,101750.62
2022-10-25T14:36:27.228Z,101749.61
2022-10-25T14:38:59.384Z,101747.84
2022-10-25T14:41:34.526Z,101750.29
2022-10-25T14:44:03.314Z,101751.27
2022-10-25T14:46:36.804Z,101758.96
2022-10-25T14:49:05.516Z,101761.38
2022-10-25T14:54:29.160Z,101756.47
2022-10-25T14:57:00.627Z,101758.37
2022-10-25T14:59:42.567Z,101757.42
2022-10-25T15:02:26.665Z,101760.23
2022-10-25T15:04:55.979Z,101759.68
2022-10-25T15:07:51.343Z,101752.13
2022-10-25T15:10:42.175Z,101744.57
2022-10-25T15:13:23.183Z,101743.20
2022-10-25T15:15:52.038Z,101739.38
2022-10-25T15:18:36.326Z,101744.15
2022-10-25T15:21:05.158Z,101741.89
2022-10-25T15:23:32.973Z,101735.58
2022-10-25T15:26:23.437Z,101738.00
2022-10-25T15:28:56.173Z,101733.68
2022-10-25T15:31:25.794Z,101736.01
2022-10-25T15:34:01.119Z,101729.20
2022-10-25T15:36:33.609Z,101730.28
2022-10-25T15:39:10.197Z,101727.80
2022-10-25T15:41:40.639Z,101725.18
2022-10-25T15:44:08.342Z,101727.96
2022-10-25T15:46:36.171Z,101736.13
2022-10-25T15:49:08.423Z,101724.98
2022-10-25T15:51:39.162Z,101728.13
2022-10-25T15:54:07.188Z,101729.95
2022-10-25T15:56:34.926Z,101727.24
2022-10-25T15:59:03.633Z,101721.26
2022-10-25T16:01:31.614Z,101720.96
2022-10-25T16:03:59.580Z,101723.84
2022-10-25T16:06:28.274Z,101727.18
2022-10-25T16:08:56.055Z,101719.16
2022-10-25T16:11:23.803Z,101715.14
2022-10-25T16:13:52.897Z,101722.24
2022-10-25T16:16:39.920Z,101714.72
2022-10-25T16:19:23.122Z,101717.83
2022-10-25T16:21:50.906Z,101717.47
2022-10-25T16:24:19.253Z,101717.95
2022-10-25T16:26:50.201Z,101718.94
2022-10-25T16:29:18.524Z,101725.28
2022-10-25T16:31:46.377Z,101733.36
2022-10-25T16:34:16.607Z,101731.55
2022-10-25T16:36:45.240Z,101714.88
2022-10-25T16:39:13.334Z,101718.71
2022-10-25T16:41:43.818Z,101717.99
2022-10-25T16:44:16.388Z,101723.52
2022-10-25T16:46:44.267Z,101718.38
2022-10-25T16:49:12.609Z,101714.06
2022-10-25T16:51:40.579Z,101716.81
2022-10-25T16:54:08.517Z,101718.71
2022-10-25T16:56:36.857Z,101718.58
2022-10-25T16:59:05.212Z,101713.94
2022-10-25T17:01:35.164Z,101716.55
2022-10-25T17:04:03.759Z,101710.66
2022-10-25T17:06:46.993Z,101719.88
2022-10-25T17:09:14.750Z,101717.23
2022-10-25T17:11:42.762Z,101713.41
2022-10-25T17:14:11.322Z,101712.10
2022-10-25T17:16:43.349Z,101717.50
2022-10-25T17:19:11.943Z,101717.50
2022-10-25T17:21:40.744Z,101709.33
2022-10-25T17:24:10.463Z,101708.87
2022-10-25T17:26:38.667Z,101709.95
2022-10-25T17:29:06.520Z,101712.56
2022-10-25T17:31:34.394Z,101703.27
2022-10-25T17:34:02.426Z,101703.51
2022-10-25T17:36:35.490Z,101711.52
2022-10-25T17:39:03.480Z,101708.18
2022-10-25T17:41:31.694Z,101710.44
2022-10-25T17:43:59.507Z,101714.85
2022-10-25T17:46:31.201Z,101708.70
2022-10-25T17:49:06.887Z,101705.34
2022-10-25T17:51:35.330Z,101698.96
2022-10-25T17:54:03.290Z,101714.75
2022-10-25T17:59:03.061Z,101709.06
2022-10-25T18:01:35.664Z,101711.32
2022-10-25T18:04:03.567Z,101716.23
2022-10-25T18:06:32.079Z,101712.40
2022-10-25T18:09:00.204Z,101710.73
2022-10-25T18:11:29.374Z,101713.09
2022-10-25T18:14:01.223Z,101713.28
2022-10-25T18:16:33.792Z,101716.02
2022-10-25T18:19:02.884Z,101713.02
2022-10-25T18:21:31.086Z,101708.31
2022-10-25T18:24:03.346Z,101713.45
2022-10-25T18:26:31.223Z,101698.60
2022-10-25T18:28:59.800Z,101702.16
2022-10-25T18:31:30.571Z,101695.23
2022-10-25T18:34:09.521Z,101698.47
2022-10-25T18:36:37.401Z,101702.85
2022-10-25T18:39:05.426Z,101702.49
2022-10-25T18:41:33.910Z,101703.63
2022-10-25T18:44:03.448Z,101695.85
2022-10-25T18:46:32.949Z,101702.82
2022-10-25T18:49:00.813Z,101690.13
2022-10-25T18:51:31.719Z,101687.26
2022-10-25T18:54:01.250Z,101688.07
2022-10-25T18:56:29.517Z,101690.13
2022-10-25T18:58:58.082Z,101691.47
2022-10-25T19:01:27.053Z,101691.96
2022-10-25T19:03:56.545Z,101683.69
2022-10-25T19:06:24.369Z,101679.15
2022-10-25T19:08:52.134Z,101682.02
2022-10-25T19:11:19.849Z,101675.91
2022-10-25T19:13:50.543Z,101677.61
2022-10-25T19:16:19.181Z,101659.17
2022-10-25T19:18:46.943Z,101660.02
2022-10-25T19:21:15.301Z,101650.57
2022-10-25T19:23:45.728Z,101654.27
2022-10-25T19:26:18.483Z,101651.78
2022-10-25T19:28:46.350Z,101646.87
2022-10-25T19:31:18.037Z,101642.46
2022-10-25T19:33:51.924Z,101640.89
2022-10-25T19:36:21.873Z,101639.23
2022-10-25T19:38:52.856Z,101648.31
2022-10-25T19:41:21.939Z,101637.88
2022-10-25T19:43:49.793Z,101645.66
2022-10-25T19:46:18.344Z,101634.19
2022-10-25T19:48:46.459Z,101637.03
2022-10-25T19:51:19.185Z,101632.00
2022-10-25T19:53:47.067Z,101641.80
2022-10-25T19:56:22.652Z,101642.16
2022-10-25T19:58:50.670Z,101631.51
2022-10-25T20:01:20.416Z,101639.98
2022-10-25T20:03:50.583Z,101633.41
2022-10-25T20:06:28.328Z,101639.03
2022-10-25T20:08:56.403Z,101630.27
2022-10-25T20:11:24.758Z,101629.64
2022-10-25T20:13:56.438Z,101635.23
2022-10-25T20:16:24.594Z,101630.85
2022-10-25T20:18:52.349Z,101630.49
2022-10-25T20:21:23.847Z,101623.76
2022-10-25T20:24:04.032Z,101620.26
2022-10-25T20:26:34.086Z,101609.50
2022-10-25T20:29:04.505Z,101614.41
2022-10-25T20:31:35.520Z,101619.51
2022-10-25T20:34:04.634Z,101630.43
2022-10-25T20:36:34.024Z,101636.54
2022-10-25T20:39:02.069Z,101632.85
2022-10-25T20:41:38.456Z,101620.36
2022-10-25T20:44:07.547Z,101624.05
2022-10-25T20:46:37.234Z,101615.45
2022-10-25T20:49:06.140Z,101616.34
2022-10-25T20:51:34.528Z,101615.45
2022-10-25T20:54:02.562Z,101610.58
2022-10-25T20:56:30.454Z,101615.95
2022-10-25T20:58:58.631Z,101615.95
2022-10-25T21:01:26.741Z,101620.85
2022-10-25T21:03:55.351Z,101613.10
2022-10-25T21:06:23.332Z,101611.43
2022-10-25T21:08:51.385Z,101610.91
2022-10-25T21:11:19.885Z,101613.66
2022-10-25T21:13:48.391Z,101610.78
2022-10-25T21:16:16.716Z,101607.77
2022-10-25T21:18:44.954Z,101608.62
2022-10-25T21:21:22.099Z,101605.74
2022-10-25T21:23:50.165Z,101606.07
2022-10-25T21:26:18.268Z,101611.83
2022-10-25T21:28:46.334Z,101609.44
2022-10-25T21:31:15.469Z,101617.35
2022-10-25T21:33:50.257Z,101612.45
2022-10-25T21:36:19.852Z,101609.60
2022-10-25T21:38:47.836Z,101605.88
2022-10-25T21:41:17.874Z,101607.09
2022-10-25T21:43:48.355Z,101612.45
2022-10-25T21:46:17.296Z,101611.98
2022-10-25T21:48:48.323Z,101612.80
2022-10-25T21:51:16.495Z,101611.46
2022-10-25T21:53:44.726Z,101611.10
2022-10-25T21:56:14.713Z,101601.20
2022-10-25T21:58:48.078Z,101585.99
2022-10-25T22:01:26.998Z,101589.72
2022-10-25T22:03:55.100Z,101585.87
2022-10-25T22:06:27.582Z,101587.40
2022-10-25T22:08:56.801Z,101576.28
2022-10-25T22:11:29.005Z,101579.03
2022-10-25T22:14:01.384Z,101578.02
2022-10-25T22:16:34.777Z,101581.38
2022-10-25T22:19:05.153Z,101571.25
2022-10-25T22:21:37.805Z,101568.73
2022-10-25T22:24:06.580Z,101569.09
2022-10-25T22:26:38.054Z,101563.70
2022-10-25T22:29:10.858Z,101570.76
2022-10-25T22:31:41.193Z,101570.76
2022-10-25T22:34:09.669Z,101570.56
2022-10-25T22:36:41.683Z,101557.88
2022-10-25T22:39:14.488Z,101562.09
2022-10-25T22:41:44.180Z,101557.38
2022-10-25T22:44:12.456Z,101571.90
2022-10-25T22:46:40.696Z,101573.77
2022-10-25T22:49:09.615Z,101583.70
2022-10-25T22:51:40.817Z,101586.23
2022-10-25T22:54:08.999Z,101580.63
2022-10-25T22:56:37.079Z,101593.29
2022-10-25T22:59:06.206Z,101591.26
2022-10-25T23:01:38.691Z,101605.74
2022-10-25T23:04:10.462Z,101601.82
2022-10-25T23:06:39.874Z,101590.70
2022-10-25T23:09:10.278Z,101619.38
2022-10-25T23:11:42.386Z,101626.60
2022-10-25T23:14:14.888Z,101641.28
2022-10-25T23:16:45.525Z,101657.86
2022-10-25T23:19:13.688Z,101611.62
2022-10-25T23:21:41.804Z,101587.47
2022-10-25T23:24:10.330Z,101585.80
2022-10-25T23:26:41.052Z,101575.99
2022-10-25T23:29:09.061Z,101588.35
2022-10-25T23:31:43.112Z,101590.84
2022-10-25T23:34:12.302Z,101582.89
2022-10-25T23:36:48.672Z,101579.65
2022-10-25T23:39:27.771Z,101583.87
2022-10-25T23:42:00.656Z,101583.05
2022-10-25T23:44:28.860Z,101588.45
2022-10-25T23:47:01.482Z,101588.91
2022-10-25T23:49:29.527Z,101595.97
2022-10-25T23:51:57.657Z,101598.02
2022-10-25T23:54:31.617Z,101599.34
2022-10-25T23:56:59.682Z,101596.49
2022-10-25T23:59:27.745Z,101582.13
